Etusivu
METAR-TAF:

METAR-TAF

Lentoasemat :

Caracas, Venezuela

Leveyspiiri: 10-36N, Pituuspiiri: 066-59W, korkeus merenpinnasta: 43 m

Tämänhetkinen sää

Tämä raportti tehtiin 46 minuuttia sitten, kello 23.00 UTC
Tuuli 2 kn koillisesta
Lämpötila 30°C
Kosteus 66%
Ilmanpaine 1010 hPa
Näkyvyys 10 km tai enemmän
Hajanaisia pilviä 1600 ft:n korkeudessa
Hajonneita pilviä 30000 ft:n korkeudessa

METAR: SVMI 282300Z 05002KT 9999 SCT016 BKN300 30/23 Q1010 NOSIG

Aika: 19:46 (23:46 UTC)

Sääennuste

Tämä raportti tehtiin 1 tunti ja 46 minuuttia sitten, kello 22.00 UTC
Ennuste voimassa 29. päivästä klo 00 UTC - 30. päivään klo 00 UTC
Tuuli 5 kn idästä
Näkyvyys 10 km tai enemmän
Hajanaisia pilviä 1600 ft:n korkeudessa
Tulossa
29. päivästä klo 00 UTC - 29. päivään klo 04 UTC
Tuuli 5 kn idästä
Hajonneita pilviä 2000 ft:n korkeudessa

TAF: SVMI 282200Z 2900/3000 10005KT 9999 SCT016 TX32/18Z TN28/09Z BECMG 2900/2904 09005KT BKN020

Säähavainnot ja -ennusteet yli 4000 lentoasemalta (METAR- ja TAF-raportit).

Käytössä olevat sääasemat on merkitty karttaan keltaisilla ja punaisilla pisteillä.

Aseta hiiri pisteen päälle nähdäksesi sääaseman nimen.

Klikkaa sitten nähdäksesi säähavainnot ja -ennusteet.

Kartan vaihtaminen: klikkaa mustalla rastilla varustettuja vihreitä pisteitä, niin voit zoomata sisään; viivalla varustettua vihreää pistettä, niin voit zoomata ulos tai vihreitä nuolia, niin pääset viereisille kartoille.


METAR-TAF: